Date,TemperatureHighF,TemperatureAvgF,TemperatureLowF,DewpointHighF,DewpointAvgF,DewpointLowF,HumidityHigh,HumidityAvg,HumidityLow,PressureMaxIn,PressureMinIn,WindSpeedMaxMPH,WindSpeedAvgMPH,GustSpeedMaxMPH,PrecipitationSumIn
2013-1-1,27.7,21.9,13.1,22.1,16.5,8.9,92,80,64,30.06,29.92,5,0,5,0.01
2013-1-2,25.8,18.7,10.4,21.6,15.4,7.2,94,87,81,30.11,29.98,5,0,5,0.00
2013-1-3,28.2,21.3,12.6,26.1,18.0,7.9,92,87,76,30.08,29.97,5,0,5,0.00
2013-1-4,29.1,25.5,21.2,25.3,21.5,17.9,91,85,75,30.10,29.94,8,2,8,0.00
2013-1-5,31.2,23.5,14.3,30.2,20.9,11.2,96,90,76,30.19,29.94,7,0,7,0.00
2013-1-6,34.1,32.2,30.9,32.3,30.2,26.8,100,92,84,30.16,29.81,8,0,8,0.00
2013-1-7,34.5,30.0,26.9,28.9,25.6,22.7,92,83,74,30.28,30.05,11,1,11,0.01
2013-1-8,35.2,27.3,19.7,28.7,23.9,17.9,95,87,75,30.16,30.06,6,0,6,0.01
2013-1-9,44.7,36.2,22.9,34.0,27.2,20.8,97,71,52,30.34,30.02,9,1,9,0.09
2013-1-10,41.4,32.0,23.3,33.1,27.4,21.6,97,84,60,30.46,30.07,7,0,7,0.08
2013-1-11,54.0,43.2,34.2,52.4,42.0,32.8,99,96,85,30.07,29.66,7,0,7,0.66
2013-1-12,58.1,50.5,41.3,52.2,48.0,40.5,98,91,79,29.83,29.71,8,0,8,0.02
2013-1-13,49.1,39.5,37.3,48.6,38.7,36.3,98,97,94,29.80,29.59,5,0,5,0.01
2013-1-14,20.8,14.8,12.6,19.1,12.9,10.7,95,92,88,30.35,30.28,0,0,0,0.00
2013-1-15,29.5,24.1,18.7,22.5,19.4,17.0,95,83,67,30.33,29.86,0,0,0,0.00
2013-1-16,37.3,33.0,28.1,28.9,23.8,16.5,87,70,43,30.07,29.72,0,0,0,0.01
2013-1-17,36.8,28.4,19.7,24.2,16.8,7.1,72,61,54,30.20,30.00,0,0,0,0.00
2013-1-18,33.3,24.9,14.5,24.1,15.6,8.3,82,68,54,30.33,29.89,0,0,0,0.00
2013-1-19,44.6,42.3,32.4,35.3,33.5,24.0,76,71,63,29.89,29.47,0,0,0,0.00
2013-1-20,42.9,22.5,16.4,35.8,11.1,4.3,76,61,49,30.08,29.46,0,0,0,0.00
2013-1-21,17.7,13.2,4.1,13.9,7.6,-0.7,88,78,65,30.04,29.86,0,0,0,0.00
2013-1-22,10.7,5.5,-6.2,3.9,-1.5,-9.9,85,73,61,30.22,30.03,0,0,0,0.00
2013-1-24,13.5,11.0,8.6,4.4,2.5,0.2,79,68,63,30.48,30.41,0,0,0,0.01
2013-1-25,20.8,17.0,13.5,16.5,12.5,3.7,92,82,65,30.42,29.93,0,0,0,0.01
2013-1-26,26.0,21.2,16.6,18.4,16.6,13.9,94,83,63,30.37,29.96,0,0,0,0.00
2013-1-27,29.2,20.9,10.8,27.2,16.7,8.5,100,84,64,30.39,30.00,0,0,0,0.00
2013-1-28,42.9,36.6,29.2,42.5,35.9,27.4,99,97,93,30.04,29.76,0,0,0,0.60
2013-1-29,53.4,35.6,34.6,53.4,17.6,-99.9,100,81,98,29.91,29.35,0,-179,0,0.30
2013-1-30,-200.0,0.0,200.0,-99.9,-99.9,-99.9,0,0,100,29.36,28.99,0,-999,0,0.30
2013-1-31,22.5,12.5,15.9,19.0,-27.2,-99.9,91,52,71,29.79,29.12,0,-367,0,0.00
2013-2-1,18.0,12.6,8.1,13.9,-1.6,-99.9,89,73,70,30.20,29.79,5,-94,5,0.00
2013-2-2,23.0,15.1,6.8,20.5,4.9,-99.9,91,80,80,30.14,29.85,0,-70,0,0.00
2013-2-3,22.2,12.8,2.4,17.9,1.8,-99.9,95,77,71,29.93,29.76,0,-70,0,0.00
2013-2-4,23.4,21.4,16.2,19.4,18.3,11.7,92,88,82,29.93,29.78,0,0,0,0.00
2013-2-5,27.5,21.1,12.3,26.0,14.6,-99.9,96,85,73,29.86,29.72,0,-35,0,0.01
2013-2-6,31.0,23.0,9.6,24.4,16.6,8.0,95,77,58,30.21,29.86,2,0,2,0.06
2013-2-7,38.1,10.7,23.8,28.9,-54.4,-99.9,86,29,67,30.19,29.74,0,-629,0,0.03
2013-2-8,27.0,13.8,14.2,22.0,-30.2,-99.9,90,48,72,30.25,29.66,0,-410,0,0.03
2013-2-9,31.4,25.8,20.1,20.9,19.6,18.3,95,78,61,30.34,30.19,1,0,1,0.11
2013-2-10,39.3,8.5,20.2,29.3,-66.8,-99.9,95,21,64,30.19,29.58,0,-736,0,0.06
2013-2-11,33.5,2.2,33.0,27.5,-91.4,-99.9,79,5,77,29.77,29.45,0,-932,0,0.06
2013-2-12,30.6,1.2,30.5,25.2,-95.1,-99.9,80,3,78,29.94,29.77,0,-961,0,0.00
2013-2-13,-200.0,0.0,200.0,-99.9,-99.9,-99.9,0,0,100,29.82,29.78,0,-999,0,0.00
2013-2-14,-200.0,0.0,200.0,-99.9,-99.9,-99.9,0,0,100,29.64,29.54,0,-71,0,0.00
2013-2-16,18.2,13.6,9.1,13.3,6.3,-99.9,90,81,68,30.08,29.95,0,0,0,0.01
2013-2-17,24.3,18.0,13.0,15.0,9.6,6.4,83,70,49,30.12,29.96,0,0,0,0.00
2013-2-18,43.4,26.3,24.7,35.9,-16.6,-99.9,81,44,57,29.95,29.50,0,-369,0,0.00
2013-2-19,23.8,7.1,19.1,19.7,-62.0,-99.9,94,26,71,29.84,29.32,0,-672,0,0.00
2013-2-20,21.6,13.5,16.5,16.6,-26.4,-99.9,81,47,66,30.15,29.84,0,-347,0,0.00
2013-2-21,26.2,22.1,20.4,18.0,16.0,13.9,85,77,66,30.29,30.14,7,0,7,0.01
2013-2-22,32.4,26.9,21.5,31.6,18.1,-99.9,98,87,85,30.15,29.79,0,-76,0,0.01
2013-2-23,33.7,28.4,23.9,32.0,16.7,-99.9,100,72,61,29.82,29.76,0,-51,0,0.11
2013-2-24,35.7,23.2,20.7,27.6,0.2,-99.9,89,65,64,30.05,29.80,0,-186,0,0.06
2013-2-25,40.9,18.3,20.5,27.7,-36.3,-99.9,98,33,54,30.12,29.97,0,-414,0,0.02
2013-2-26,-200.0,0.0,200.0,-99.9,-99.9,-99.9,0,0,100,30.00,29.38,0,-999,0,0.02
2013-2-27,-200.0,0.0,200.0,-99.9,-99.9,-99.9,0,0,100,29.46,29.44,0,-999,0,0.00
2013-2-28,-200.0,0.0,200.0,-99.9,-99.9,-99.9,0,0,100,29.80,29.43,0,-791,0,0.00
2013-3-1,25.8,4.7,24.4,22.0,-77.3,-99.9,86,16,84,30.00,29.80,0,-813,0,0.00
2013-3-2,26.3,22.5,22.2,21.3,9.8,-99.9,87,75,77,29.99,29.95,0,-80,0,0.00
2013-3-3,31.2,20.3,17.8,18.0,-1.1,-99.9,86,62,54,29.97,29.90,0,-149,0,0.04
2013-3-4,35.4,15.2,14.8,20.3,-37.7,-99.9,89,34,48,30.06,29.95,0,-468,0,0.03
2013-3-5,35.4,5.8,21.7,25.0,-75.2,-99.9,91,16,65,30.02,29.72,0,-798,0,0.03
2013-3-6,-200.0,0.0,200.0,-99.9,-99.9,-99.9,0,0,100,30.05,29.73,0,-999,0,0.00
2013-3-7,-200.0,0.0,200.0,-99.9,-99.9,-99.9,0,0,100,30.24,30.04,0,-999,0,0.00
2013-3-8,28.9,3.5,19.7,22.9,-82.5,-99.9,96,13,78,30.39,30.23,0,-856,0,0.00
2013-3-9,-200.0,0.0,200.0,-99.9,-99.9,-99.9,0,0,100,29.84,29.82,0,0,0,0.00
2013-3-10,-200.0,0.0,200.0,-99.9,-99.9,-99.9,0,0,100,29.83,29.65,0,-999,0,0.00
2013-3-16,31.4,30.5,28.9,27.4,25.8,23.2,85,82,79,29.88,29.81,0,0,0,0.03
2013-3-17,34.2,28.9,22.5,20.9,17.6,15.0,76,63,51,30.17,30.08,0,0,0,0.09
2013-3-18,34.1,29.5,21.9,33.3,26.6,16.1,97,89,77,30.08,29.45,0,0,0,0.01
2013-3-19,33.8,26.5,22.3,31.4,20.1,15.4,92,77,67,29.84,29.51,0,0,0,0.00
2013-3-20,29.1,24.3,17.1,19.0,15.8,9.5,81,70,58,29.85,29.79,0,0,0,0.00
2013-3-21,31.3,23.5,14.7,23.7,18.3,10.9,89,81,67,29.85,29.77,0,0,0,0.00
2013-3-22,40.0,30.6,25.4,24.2,21.2,17.6,82,69,50,29.92,29.84,0,0,0,0.00
2013-3-23,37.0,29.3,19.8,26.1,22.8,17.9,97,77,60,30.01,29.91,0,0,0,0.00
2013-3-24,37.0,30.3,23.5,28.0,23.9,20.0,94,78,54,29.94,29.52,0,0,0,0.00
2013-3-25,40.6,34.1,30.3,29.2,26.6,23.7,83,74,59,29.81,29.45,0,0,0,0.00
2013-3-26,34.3,33.6,32.5,28.9,28.5,27.9,84,81,78,29.83,29.80,0,0,0,0.00
2013-3-31,37.2,37.2,37.2,29.3,29.3,29.3,73,73,73,29.80,29.80,0,0,0,0.00
2013-4-1,39.9,33.2,26.2,17.5,14.1,11.2,60,46,32,30.00,29.80,0,0,0,0.00
2013-4-2,42.0,30.1,19.7,19.4,14.9,11.7,84,56,31,30.15,29.99,0,0,0,0.00
2013-4-3,43.6,32.2,21.4,17.3,14.6,9.8,79,51,27,30.32,30.14,0,0,0,0.00
2013-4-4,56.4,38.8,21.9,22.0,17.4,14.5,76,46,21,30.26,29.85,0,0,0,0.00
2013-4-5,50.2,42.0,33.9,30.0,21.6,15.3,79,46,26,30.09,29.83,0,0,0,0.00
2013-4-6,52.7,40.1,29.2,30.2,23.8,17.7,74,54,33,30.14,29.67,0,0,0,0.00
2013-4-7,56.1,51.4,40.3,45.2,37.0,26.6,75,59,38,29.90,29.51,0,0,0,0.00
2013-4-8,64.4,45.5,35.8,56.7,40.3,31.0,96,83,63,29.91,29.58,0,0,0,0.18
2013-4-9,54.9,47.3,42.4,48.9,43.5,40.3,94,87,73,29.96,29.75,0,0,0,0.00
2013-4-10,47.7,46.2,44.3,45.2,44.0,42.1,93,92,91,29.87,29.82,0,0,0,0.00
2013-4-11,38.9,37.4,36.1,38.3,36.5,35.1,98,96,95,29.83,29.52,0,0,0,1.17
2013-4-12,41.6,38.2,35.4,39.6,36.0,33.4,98,92,77,29.67,29.42,0,0,0,0.30
2013-4-13,42.9,38.2,35.8,37.7,32.2,27.6,94,79,62,29.88,29.66,0,0,0,0.01
2013-4-14,49.7,39.2,30.7,37.9,32.4,27.1,91,77,61,30.01,29.82,0,0,0,0.03
2013-4-15,67.4,53.8,37.1,55.9,45.8,33.7,92,75,59,29.85,29.75,0,0,0,0.02
2013-4-16,60.7,53.5,45.0,53.9,43.9,31.1,96,73,39,30.10,29.74,0,0,0,0.30
2013-4-17,58.6,47.7,40.0,46.5,37.2,31.0,95,69,44,30.21,29.90,0,0,0,0.71
2013-4-18,76.3,57.0,42.8,67.1,54.2,41.5,97,91,66,29.92,29.44,0,0,0,0.75
2013-4-19,58.0,46.3,38.8,57.3,42.3,30.2,98,86,67,29.56,29.20,0,0,0,0.34
2013-4-22,43.8,43.7,43.6,35.0,34.4,34.1,71,70,69,30.08,30.07,0,0,0,0.00
2013-4-23,70.2,53.9,36.9,53.8,42.5,33.2,97,69,38,30.07,29.66,0,0,0,0.26
2013-4-24,54.4,40.1,34.6,53.6,37.8,27.8,97,92,75,30.03,29.60,0,0,0,0.49
2013-4-25,50.8,41.1,30.0,42.9,31.2,27.3,97,70,47,30.24,30.01,0,0,0,0.19
2013-4-26,59.4,44.7,28.4,39.5,33.3,26.9,98,68,38,30.36,30.22,0,0,0,0.00
2013-4-27,70.0,53.7,34.1,43.5,37.0,29.5,98,59,23,30.25,29.98,0,0,0,0.00
2013-4-28,53.5,51.6,46.5,52.9,45.9,33.8,98,82,52,29.98,29.71,0,0,0,0.25
2013-4-29,69.8,59.2,51.0,56.5,53.5,50.5,99,83,57,29.81,29.71,0,0,0,0.03
2013-4-30,72.6,61.0,51.6,58.4,54.3,50.1,97,80,57,29.94,29.80,0,0,0,0.00
2013-5-1,82.3,65.4,47.2,60.0,53.6,46.1,99,70,40,30.10,29.93,0,0,0,0.00
2013-5-2,79.3,66.0,52.1,57.1,51.0,44.9,88,61,36,30.11,29.99,0,0,0,0.00
2013-5-3,77.6,65.8,54.4,58.7,46.3,33.4,72,52,24,30.00,29.91,0,0,0,0.00
2013-5-4,71.6,62.7,54.6,48.1,42.3,33.1,76,50,27,29.98,29.91,0,0,0,0.00
2013-5-5,73.5,60.0,51.7,47.8,40.6,32.6,72,51,26,29.97,29.88,0,0,0,0.00
2013-5-6,75.1,61.5,46.8,51.1,44.0,38.3,77,54,37,29.93,29.84,0,0,0,0.00
2013-5-7,76.9,63.1,49.1,55.3,49.2,41.5,85,62,40,29.93,29.85,0,0,0,0.00
2013-5-8,82.3,64.6,52.7,59.5,50.9,45.7,87,64,32,29.89,29.79,0,0,0,0.01
2013-5-9,80.4,66.5,50.7,57.4,51.3,46.8,98,63,32,29.84,29.75,0,0,0,0.00
2013-5-10,69.0,58.1,43.0,64.3,53.8,39.9,98,86,70,29.79,29.61,0,0,0,0.26
2013-5-11,61.6,47.1,36.8,48.4,41.8,33.4,93,83,57,29.78,29.62,0,0,0,0.02
2013-5-12,49.3,40.9,32.4,34.6,30.9,26.0,93,69,46,29.99,29.76,0,0,0,0.00
2013-5-13,55.0,41.9,28.5,33.4,27.0,21.4,92,60,29,30.07,29.98,0,0,0,0.00
2013-5-14,77.8,58.2,41.2,55.8,42.3,30.1,72,57,37,30.00,29.59,0,0,0,0.00
2013-5-15,59.0,57.5,56.6,51.4,50.1,48.7,82,76,72,29.62,29.50,0,0,0,0.00
2013-5-19,85.1,78.2,65.9,65.2,62.5,60.0,82,60,44,29.81,29.75,0,0,0,0.00
2013-5-20,88.9,74.2,59.5,71.2,63.9,58.1,98,73,45,29.79,29.63,0,0,0,0.00
2013-5-21,83.5,73.7,65.9,69.2,63.9,60.0,95,73,47,29.68,29.57,0,0,0,0.13
2013-5-22,78.1,66.7,60.2,68.0,63.5,59.1,99,90,56,29.61,29.49,0,0,0,0.10
2013-5-23,63.0,53.2,43.3,60.8,51.9,41.4,100,95,85,30.03,29.56,0,0,0,0.10
2013-5-24,55.6,46.7,39.1,42.2,38.6,35.2,97,75,50,30.24,30.02,0,0,0,0.00
2013-5-25,65.8,51.4,35.2,41.6,37.4,32.6,98,64,33,30.29,30.16,0,0,0,0.00
2013-5-26,70.3,55.7,37.0,43.1,37.6,31.3,97,56,28,30.24,30.09,0,0,0,0.00
2013-5-27,57.5,50.6,44.5,50.2,44.0,36.6,100,79,57,30.14,29.88,0,0,0,0.62
2013-5-28,73.8,61.7,50.8,71.1,60.4,50.0,100,96,86,29.88,29.67,0,0,0,0.19
2013-5-29,81.4,71.8,62.5,68.9,65.7,61.0,98,82,58,29.85,29.65,0,0,0,0.01
2013-5-30,85.0,71.4,60.5,74.4,66.8,59.6,99,86,60,29.93,29.82,0,0,0,0.24
2013-5-31,78.7,69.6,65.2,70.5,67.4,64.5,98,93,71,29.86,29.72,0,0,0,0.42
2013-6-1,76.9,68.5,62.8,69.8,65.2,62.1,99,90,72,29.72,29.55,0,0,0,0.15
2013-6-2,69.4,63.8,53.6,64.2,58.4,45.4,97,83,70,29.85,29.52,0,0,0,0.00
2013-6-3,66.7,55.7,40.7,47.5,42.6,38.3,95,64,37,29.96,29.84,0,0,0,0.00
2013-6-4,72.4,60.1,46.3,50.5,46.0,34.7,96,63,37,30.07,29.96,0,0,0,0.00
2013-6-5,74.2,61.9,50.4,50.6,43.8,33.2,75,53,32,30.04,29.86,0,0,0,0.00
2013-6-6,70.7,60.7,55.0,56.2,49.5,42.5,78,67,55,29.86,29.72,0,0,0,0.00
2013-6-7,60.5,55.6,50.3,54.4,51.4,48.3,94,86,77,29.79,29.74,0,0,0,0.00
2013-6-8,72.5,62.9,55.2,58.4,53.9,51.7,93,74,52,29.94,29.78,0,0,0,0.00
2013-6-9,75.8,66.3,56.8,63.0,57.1,53.0,95,74,53,29.98,29.81,0,0,0,0.00
2013-6-10,69.8,64.5,60.1,68.5,63.1,55.0,99,95,68,29.82,29.60,0,0,0,0.94
2013-6-11,79.6,70.3,62.9,70.2,65.4,62.3,100,86,64,29.76,29.62,0,0,0,0.00
2013-6-12,77.2,70.7,63.0,72.0,66.4,60.1,92,86,75,29.80,29.64,0,0,0,0.03
2013-6-13,76.6,67.9,60.0,64.6,60.4,55.8,98,79,51,29.79,29.38,0,0,0,1.12
2013-6-14,76.3,66.2,57.5,61.4,56.6,52.6,94,73,48,29.94,29.79,0,0,0,0.00
2013-6-15,77.5,65.2,53.5,66.6,59.8,52.4,100,84,57,29.95,29.80,0,0,0,0.01
2013-6-16,79.8,68.4,60.7,70.0,63.0,53.1,99,84,48,29.80,29.65,0,0,0,0.40
2013-6-17,85.0,71.4,57.7,68.0,60.4,53.3,92,70,39,29.79,29.69,0,0,0,0.00
2013-6-18,72.1,64.5,54.8,61.3,54.0,43.8,95,71,44,29.94,29.74,0,0,0,0.00
2013-6-19,75.2,62.3,48.2,56.9,49.6,41.8,85,65,40,30.04,29.93,0,0,0,0.00
2013-6-20,80.5,66.8,50.4,60.2,54.4,49.0,98,68,39,30.09,30.00,0,0,0,0.00
2013-6-21,84.5,75.3,57.7,69.2,62.0,55.3,92,65,47,30.07,29.91,0,0,0,0.00
2013-6-22,84.9,71.8,63.5,76.6,66.1,57.9,93,82,72,29.96,29.83,0,0,0,0.00
2013-6-23,86.6,75.5,66.1,73.9,68.7,64.5,97,81,56,29.94,29.85,0,0,0,0.00
2013-6-24,85.7,79.8,68.7,74.1,70.8,67.2,95,75,61,29.92,29.77,0,0,0,0.00
2013-6-25,81.4,72.5,66.1,75.4,69.1,63.6,99,89,74,29.87,29.67,0,0,0,0.53
2013-6-26,80.3,71.7,64.7,73.7,68.4,63.8,99,90,69,29.77,29.60,0,0,0,0.33
2013-6-27,78.8,69.7,64.8,74.4,68.2,64.0,99,95,81,29.63,29.49,0,0,0,1.10
2013-6-28,75.2,66.0,61.9,70.9,64.8,61.3,99,96,75,29.51,29.38,0,0,0,0.62
2013-6-29,69.1,64.7,60.2,67.3,63.6,59.3,99,96,86,29.61,29.41,0,0,0,0.05
2013-6-30,77.5,67.0,58.9,65.6,60.4,55.2,100,81,54,29.81,29.60,0,0,0,0.01
2013-7-1,65.5,61.2,58.4,61.3,56.1,48.1,96,84,64,29.93,29.80,0,0,0,0.18
2013-7-2,72.8,66.3,58.0,65.9,61.4,55.8,97,85,75,29.94,29.88,0,0,0,0.03
2013-7-3,81.0,69.5,60.0,71.1,64.8,58.6,97,86,65,29.98,29.90,0,0,0,0.00
2013-7-4,77.8,71.5,65.2,69.8,66.4,63.3,98,85,68,30.00,29.93,0,0,0,0.00
2013-7-5,81.1,72.9,68.0,72.1,68.0,65.1,98,85,64,29.97,29.91,0,0,0,0.03
2013-7-6,81.9,72.7,66.1,72.9,69.2,65.2,99,90,69,29.98,29.85,0,0,0,0.10
2013-7-7,76.7,70.7,67.6,72.4,69.1,66.2,100,95,82,29.90,29.82,0,0,0,0.08
2013-7-8,81.3,71.7,65.9,76.6,70.2,65.3,99,95,84,29.91,29.82,0,0,0,0.25
2013-7-9,86.4,74.9,69.4,77.5,72.1,68.8,99,92,72,29.85,29.73,0,0,0,0.07
2013-7-10,84.1,74.3,65.5,79.1,70.9,59.1,100,90,64,29.80,29.63,0,0,0,0.04
2013-7-11,78.3,68.5,58.1,62.7,58.4,55.0,96,72,47,29.93,29.80,0,0,0,0.00
2013-7-12,61.2,59.2,57.7,57.1,56.7,56.0,94,91,86,29.95,29.93,0,0,0,0.00
2013-7-13,84.0,72.7,60.0,67.0,63.2,58.4,98,75,47,30.08,30.00,0,0,0,0.00
2013-7-14,87.8,76.4,65.0,74.9,68.6,62.6,97,78,56,30.12,30.07,0,0,0,0.00
2013-7-15,90.8,79.1,69.4,79.8,73.7,68.2,98,84,63,30.16,30.07,0,0,0,0.00
2013-7-16,90.6,81.1,74.1,79.9,75.1,71.3,97,83,62,30.17,30.09,0,0,0,0.00
2013-7-17,90.2,80.6,72.2,79.5,74.9,70.6,96,83,67,30.15,30.01,0,0,0,0.00
2013-7-18,92.0,80.9,71.5,79.4,74.6,70.0,98,82,58,30.03,29.82,0,0,0,0.00
2013-7-19,76.5,13.9,73.0,74.0,-67.8,-99.9,95,17,92,29.83,29.60,0,-813,0,0.00
2013-7-20,82.3,12.8,70.9,72.4,-71.2,-99.9,99,14,67,29.78,29.59,0,-831,0,0.00
2013-7-21,79.7,23.8,71.5,68.2,-47.7,-99.9,85,23,62,29.86,29.77,0,-685,0,0.00
2013-7-22,71.4,24.5,67.9,67.8,-41.4,-99.9,96,32,84,29.81,29.63,0,-648,0,0.02
2013-7-23,74.0,3.6,59.1,70.8,-91.1,-99.9,90,5,76,29.76,29.55,0,-943,0,0.00
2013-7-24,72.2,63.3,55.6,56.8,53.2,49.5,85,70,51,29.92,29.76,0,0,0,0.00
2013-7-25,76.8,64.1,49.8,59.6,53.9,48.4,98,72,43,29.99,29.92,0,0,0,0.00
2013-7-26,79.2,67.2,54.6,64.4,58.6,52.9,98,76,52,29.98,29.78,0,0,0,0.02
2013-7-27,71.0,63.4,53.1,69.1,61.8,51.6,97,95,84,29.79,29.59,0,0,0,0.29
2013-7-28,64.3,56.3,49.0,57.9,53.2,48.2,99,90,73,29.87,29.70,0,0,0,0.00
2013-7-29,67.4,59.9,53.3,59.2,55.3,51.6,97,86,66,30.06,29.86,0,0,0,0.00
2013-7-30,78.0,65.3,52.3,63.6,57.8,51.2,99,79,50,30.11,30.00,0,0,0,0.00
2013-7-31,75.9,67.8,62.8,68.7,64.7,60.5,98,90,71,30.00,29.75,0,0,0,0.19
2013-8-1,77.8,66.2,56.9,67.5,62.4,55.4,98,89,51,29.79,29.73,0,0,0,0.11
2013-8-2,71.0,62.9,53.5,66.3,60.2,52.6,100,91,74,29.81,29.72,0,0,0,0.00
2013-8-3,77.5,68.4,60.2,63.8,59.5,53.8,98,76,48,29.91,29.77,0,0,0,0.00
2013-8-4,72.5,63.4,53.4,58.0,55.1,52.0,96,76,56,30.03,29.91,0,0,0,0.01
2013-8-5,69.4,63.1,52.1,61.1,55.8,49.9,97,78,66,30.00,29.84,0,0,0,0.00
2013-8-6,77.0,67.9,62.2,70.8,64.0,58.3,96,88,72,29.85,29.76,0,0,0,0.11
2013-8-7,80.6,69.6,62.8,74.5,67.6,61.9,99,94,77,29.80,29.69,0,0,0,0.13
2013-8-8,76.2,69.1,64.8,70.0,65.0,61.1,98,87,71,29.88,29.76,0,0,0,0.00
2013-8-9,79.7,69.1,59.6,64.5,60.1,55.8,94,75,49,29.88,29.81,0,0,0,0.00
2013-8-10,75.7,67.9,60.9,65.5,61.1,57.6,96,80,61,30.00,29.88,0,0,0,0.00
2013-8-11,77.6,67.7,55.7,66.2,59.8,54.6,99,78,55,30.00,29.90,0,0,0,0.00
2013-8-12,71.0,65.5,62.5,69.2,63.4,59.5,99,93,77,29.93,29.71,0,0,0,2.01
2013-8-13,67.0,61.2,54.4,64.2,55.1,46.6,99,82,57,29.93,29.70,0,0,0,0.01
2013-8-14,69.9,58.0,48.0,55.1,50.3,45.7,94,77,51,30.05,29.93,0,0,0,0.00
2013-8-15,52.7,52.3,51.9,50.5,50.3,49.9,94,93,91,30.04,30.02,0,0,0,0.00
2013-8-20,82.4,76.8,68.0,70.0,67.7,65.0,91,74,60,30.02,29.95,0,0,0,0.00
2013-8-21,83.1,72.1,62.2,73.4,67.0,61.3,99,85,67,30.01,29.86,0,0,0,0.00
2013-8-22,79.1,72.4,67.2,71.1,67.9,65.3,97,86,72,29.91,29.83,0,0,0,0.00
2013-8-23,79.0,70.1,58.6,67.3,58.1,49.4,95,69,36,30.07,29.90,0,0,0,0.00
2013-8-24,81.6,68.7,57.0,66.6,59.2,53.9,99,74,48,30.18,30.07,0,0,0,0.00
2013-8-25,83.3,69.0,56.4,68.5,62.0,55.4,99,80,54,30.17,30.03,0,0,0,0.00
2013-8-26,80.4,76.6,73.0,73.3,72.3,71.2,94,87,79,29.87,29.84,0,0,0,0.00
2013-8-27,81.4,73.7,69.2,78.2,72.3,68.3,99,96,88,29.87,29.70,0,0,0,0.36
2013-8-28,79.8,75.2,69.5,75.9,73.0,68.3,99,93,81,29.86,29.64,0,0,0,0.06
2013-8-29,84.9,74.4,65.3,74.5,69.6,64.7,99,86,64,29.94,29.86,0,0,0,0.00
2013-8-30,83.3,73.7,63.4,74.4,69.2,62.5,100,87,67,29.87,29.61,0,0,0,0.40
2013-8-31,79.2,73.3,69.4,73.0,69.8,66.0,99,89,72,29.70,29.59,0,0,0,0.01
2013-9-1,79.7,71.9,66.9,73.9,68.7,65.2,97,90,79,29.71,29.58,0,0,0,0.01
2013-9-2,76.2,69.0,60.3,69.2,62.5,51.9,98,81,59,29.78,29.59,0,0,0,0.00
2013-9-3,72.8,62.8,57.4,59.4,54.8,51.4,91,76,57,29.90,29.78,0,0,0,0.00
2013-9-4,78.4,65.7,53.5,64.3,59.1,52.7,99,81,55,29.96,29.89,0,0,0,0.00
2013-9-5,70.1,61.7,53.4,61.4,52.5,46.3,95,74,45,30.13,29.95,0,0,0,0.00
2013-9-6,70.3,53.4,46.0,53.4,47.4,39.5,99,83,45,30.16,30.11,0,0,0,0.00
2013-9-7,81.0,72.9,67.8,70.9,67.7,64.1,92,84,64,29.86,29.77,0,0,0,0.01
2013-9-8,70.0,68.3,66.6,66.6,64.9,62.4,93,89,86,29.92,29.79,0,0,0,0.00
2013-9-9,68.8,63.5,61.8,67.9,62.7,60.9,99,98,97,29.88,29.84,0,0,0,0.30
2013-9-11,88.3,77.7,68.0,76.8,71.2,67.1,97,82,64,29.87,29.76,0,0,0,0.09
2013-9-12,74.2,64.8,56.0,66.8,58.8,49.8,98,82,56,29.83,29.70,0,0,0,0.00
2013-9-13,55.8,53.2,51.6,49.8,47.1,44.9,84,80,75,29.91,29.83,0,0,0,0.00
2013-9-14,51.3,41.1,39.0,46.9,39.9,38.1,99,95,80,30.09,30.02,0,0,0,0.00
2013-9-15,55.2,55.1,55.1,54.6,54.4,54.3,98,97,97,30.01,30.00,0,0,0,0.05
2013-9-16,61.2,55.5,48.2,54.5,50.4,43.2,100,84,60,30.25,30.00,0,0,0,0.00
2013-9-17,66.5,57.7,39.5,53.6,46.9,37.6,99,70,39,30.28,30.11,0,0,0,0.01
2013-9-18,74.4,59.5,46.9,60.0,53.2,45.7,99,82,50,30.09,29.98,0,0,0,0.00
2013-9-19,78.2,71.5,61.9,70.5,66.9,61.3,98,86,73,29.91,29.79,0,0,0,0.00
2013-9-20,78.2,69.8,64.8,73.2,68.2,63.9,99,95,78,29.79,29.60,0,0,0,0.47
2013-9-21,66.9,61.3,55.5,64.3,56.1,48.5,99,84,56,29.74,29.55,0,0,0,0.03
2013-9-22,58.2,51.8,43.8,49.2,44.1,41.4,93,76,57,29.96,29.74,0,0,0,0.00
2013-9-23,59.6,49.7,41.6,47.7,44.1,40.1,97,82,60,30.08,29.96,0,0,0,0.00
2013-9-24,66.5,53.0,41.8,54.5,47.7,41.0,100,84,60,30.03,29.88,0,0,0,0.00
2013-9-25,69.5,56.5,47.8,58.1,51.1,46.5,99,84,59,29.89,29.82,0,0,0,0.00
2013-9-26,75.1,59.0,48.6,55.6,50.0,47.8,99,76,40,30.02,29.88,0,0,0,0.00
2013-9-27,74.6,59.4,47.5,61.7,53.4,46.7,100,83,52,30.11,30.01,0,0,0,0.00
2013-9-28,76.5,68.2,58.3,61.3,57.8,54.3,99,72,47,30.07,29.89,0,0,0,0.00
2013-9-29,62.4,58.2,53.9,61.8,57.2,52.8,98,97,92,29.90,29.83,0,0,0,0.14
2013-9-30,68.3,59.8,52.2,60.4,56.7,51.0,99,90,60,29.89,29.80,0,0,0,0.01
2013-10-1,69.2,57.5,48.8,64.5,56.0,48.3,100,95,83,29.90,29.82,0,0,0,0.00
2013-10-2,77.5,63.7,55.3,60.9,55.2,48.4,100,78,39,29.95,29.83,0,0,0,0.00
2013-10-3,75.5,64.1,54.0,69.1,60.8,51.3,97,89,79,29.93,29.80,0,0,0,0.00
2013-10-4,77.5,68.3,61.9,69.5,65.2,61.3,100,91,72,29.89,29.81,0,0,0,0.01
2013-10-5,72.2,67.4,63.5,69.8,66.1,62.4,99,96,88,29.91,29.73,0,0,0,0.24
2013-10-6,68.2,64.2,54.8,67.7,63.4,54.2,99,97,89,29.73,29.49,0,0,0,0.33
2013-10-7,57.5,49.9,42.4,54.6,47.7,41.6,99,92,73,30.00,29.56,0,0,0,0.01
2013-10-8,66.4,51.6,39.9,53.0,44.7,39.4,100,81,46,30.17,30.00,0,0,0,0.00
2013-10-9,69.4,53.6,42.2,56.1,46.8,41.6,100,81,45,30.20,30.10,0,0,0,0.00
2013-10-10,47.9,46.6,45.6,46.3,45.4,44.4,97,95,94,30.10,30.08,0,0,0,0.00
2013-10-18,61.1,53.9,42.7,49.5,45.2,40.3,91,73,54,29.79,29.73,0,0,0,0.01
2013-10-19,46.3,41.1,36.5,45.5,40.2,35.6,99,97,92,29.79,29.64,0,0,0,0.19
2013-10-20,56.2,44.6,35.6,47.5,41.0,35.1,100,88,61,29.81,29.72,0,0,0,0.02
2013-10-21,52.1,47.8,36.6,49.1,44.3,35.0,96,88,76,29.75,29.68,0,0,0,0.03
2013-10-22,48.3,39.2,28.7,37.5,33.1,27.5,97,80,57,29.81,29.73,0,0,0,0.00
2013-10-23,47.3,38.0,30.7,36.1,32.4,27.2,97,82,47,29.83,29.71,0,0,0,0.00
2013-10-24,46.3,37.1,31.2,36.2,32.0,28.1,96,83,50,30.07,29.81,0,0,0,0.00
2013-10-25,47.1,37.1,30.2,37.3,32.1,28.7,97,83,58,30.22,30.01,0,0,0,0.00
2013-10-26,48.4,41.5,33.3,40.2,33.5,29.3,96,74,61,30.01,29.67,0,0,0,0.08
2013-10-27,51.0,38.4,30.6,42.0,34.1,29.9,99,86,56,29.97,29.87,0,0,0,0.00
2013-10-28,51.0,39.9,29.8,42.6,35.4,28.5,98,85,69,30.25,29.93,0,0,0,0.00
2013-10-30,52.9,51.7,51.3,50.5,49.9,49.4,96,93,88,29.90,29.84,0,0,0,0.19
2013-10-31,60.5,58.3,51.7,60.2,57.7,50.9,99,98,97,29.85,29.04,0,0,0,0.94
2013-11-1,59.5,48.2,44.2,59.1,45.4,41.4,99,90,82,29.54,29.00,0,0,0,0.05
2013-11-2,46.3,43.7,36.2,44.4,41.6,33.9,98,92,83,29.98,29.53,0,0,0,0.12
2013-11-3,44.9,36.6,30.1,37.5,32.8,29.2,99,87,67,30.34,29.98,0,0,0,0.00
2013-11-4,48.3,39.4,31.4,36.4,32.7,29.4,98,78,49,30.36,30.20,0,0,0,0.00
2013-11-5,39.8,38.4,36.6,37.9,35.7,34.3,95,90,85,30.21,30.19,0,0,0,0.00
2013-11-6,54.4,47.9,41.8,52.7,45.7,40.2,94,92,89,29.88,29.71,0,0,0,0.13
2013-11-7,45.3,39.3,33.9,40.1,32.9,27.8,95,79,55,30.02,29.86,0,0,0,0.02
2013-11-8,44.7,34.9,29.1,32.6,29.5,26.8,98,82,51,30.18,30.01,0,0,0,0.00
2013-11-9,55.9,46.3,35.1,42.8,37.1,30.8,86,71,57,30.08,29.70,0,0,0,0.00
2013-11-10,47.4,41.0,30.4,40.6,31.9,27.9,94,71,57,30.15,29.79,0,0,0,0.00
2013-11-11,42.9,35.5,27.5,40.2,32.1,23.2,95,87,77,30.21,29.92,0,0,0,0.15
2013-11-12,33.3,27.2,20.6,24.0,20.3,16.8,92,76,55,30.44,30.21,0,0,0,0.02
2013-11-13,40.1,28.2,16.7,25.7,18.5,12.1,97,70,33,30.45,30.07,0,0,0,0.00
2013-11-14,49.0,39.0,28.6,29.0,24.2,19.2,77,56,42,30.08,29.89,0,0,0,0.00
2013-11-15,49.5,41.8,33.2,32.7,30.2,-99.9,77,64,48,29.96,29.88,0,-2,0,0.00
2013-11-16,56.1,41.2,30.6,52.7,37.0,28.8,97,85,77,29.99,29.69,0,0,0,0.00
2013-11-17,61.9,57.5,53.2,59.5,55.9,45.3,98,94,74,29.69,29.11,0,0,0,0.71
2013-11-18,34.3,34.1,34.0,26.4,25.5,24.6,73,71,68,30.02,29.90,0,0,0,0.00
2013-11-19,41.4,34.2,27.0,25.5,24.1,21.0,89,67,47,30.29,30.02,0,0,0,0.00
2013-11-20,45.0,34.2,24.1,33.1,27.1,21.9,95,77,49,30.33,30.13,0,0,0,0.00
2013-11-21,46.0,42.6,39.4,43.3,38.3,29.3,98,85,67,30.18,30.05,0,0,0,0.27
2013-11-22,45.0,39.1,27.1,44.6,37.0,24.8,99,92,79,30.25,30.01,0,0,0,0.03
2013-11-23,29.7,24.2,17.1,25.3,17.9,9.0,97,77,53,30.42,30.16,0,0,0,0.00
2013-11-24,25.2,18.3,13.5,14.9,11.4,9.0,91,75,55,30.51,30.33,0,0,0,0.00
2013-11-25,30.4,24.5,17.1,25.3,17.3,11.5,90,74,57,30.33,30.00,0,0,0,0.00
2013-11-26,33.6,30.7,28.2,28.8,27.1,24.1,92,87,80,30.01,29.82,0,0,0,0.00
2013-11-27,28.6,23.5,16.5,24.4,16.0,11.5,89,73,56,30.10,29.81,0,0,0,0.01
2013-11-28,27.9,22.0,14.4,22.5,16.7,10.9,92,80,65,30.33,30.10,0,0,0,0.00
2013-11-29,34.3,24.9,15.6,23.5,18.9,13.6,96,79,51,30.56,30.32,0,0,0,0.00
2013-11-30,44.1,32.6,27.0,30.2,25.5,21.4,88,75,56,30.45,29.99,0,0,0,0.01
2013-12-1,45.9,34.1,26.4,36.7,30.0,24.6,96,86,69,29.99,29.87,0,0,0,0.00
2013-12-2,39.9,32.8,24.8,31.8,26.9,21.7,94,80,57,29.89,29.77,0,0,0,0.00
2013-12-3,37.6,33.5,24.6,36.5,31.6,21.6,96,93,83,29.80,29.73,0,0,0,0.01
2013-12-4,56.8,45.5,36.7,54.3,43.9,35.6,98,94,89,29.79,29.51,0,0,0,0.00
2013-12-5,56.8,42.2,30.0,54.5,36.3,22.8,95,79,69,30.03,29.49,0,0,0,0.00
2013-12-6,30.0,26.1,21.2,23.7,18.5,13.6,78,73,67,30.29,30.00,0,0,0,0.00
2013-12-7,25.0,18.5,12.2,14.0,11.5,8.4,93,75,57,30.53,30.29,0,0,0,0.00
2013-12-8,28.2,19.5,10.8,27.0,15.7,7.9,95,85,70,30.50,29.89,0,0,0,0.00
2013-12-9,28.2,25.1,18.3,27.1,21.5,13.3,96,86,75,30.01,29.78,0,0,0,0.00
2013-12-10,21.6,17.0,9.1,15.3,10.2,2.5,92,74,52,30.10,29.86,0,0,0,0.00
2013-12-11,23.5,16.7,5.2,19.2,11.8,0.7,92,81,70,30.36,30.09,0,0,0,0.00
2013-12-12,20.1,12.1,1.4,15.4,6.0,-1.7,92,77,50,30.37,30.09,0,0,0,0.00
2013-12-13,27.9,23.6,19.9,21.9,18.6,15.4,84,81,75,30.16,30.06,0,0,0,0.00
2013-12-14,23.4,19.5,18.0,18.9,16.9,14.5,93,90,77,30.16,29.71,0,0,0,0.00
2013-12-15,24.1,19.5,16.0,23.0,16.6,10.4,100,88,76,29.94,29.71,0,0,0,0.00
2013-12-16,23.4,13.4,5.5,14.9,9.4,3.0,94,84,63,30.09,29.91,0,0,0,0.02
2013-12-17,26.6,20.8,12.4,23.0,18.5,10.2,96,90,82,29.91,29.80,0,0,0,0.00
2013-12-18,29.8,24.9,19.9,24.6,20.7,15.3,97,84,70,30.02,29.80,0,0,0,0.00
2013-12-19,39.7,30.9,20.5,34.2,27.0,16.0,95,85,78,29.89,29.77,0,0,0,0.24
2013-12-20,40.5,36.1,33.8,40.3,35.5,32.9,99,98,93,29.79,29.60,0,0,0,0.51
2013-12-21,36.1,33.4,32.2,36.0,33.0,31.6,99,98,98,29.74,29.52,0,0,0,0.34
2013-12-22,36.9,33.9,32.4,35.8,33.0,31.6,99,96,89,29.85,29.43,0,0,0,0.40
2013-12-23,33.1,28.2,19.0,31.8,24.0,14.5,96,84,70,30.20,29.85,0,0,0,0.00
2013-12-24,20.1,15.1,9.9,14.4,9.7,6.8,89,79,64,30.45,30.19,0,0,0,0.00
2013-12-25,24.3,18.9,8.8,22.5,16.2,6.4,100,89,81,30.41,30.01,0,0,0,0.00
2013-12-26,26.8,25.2,23.2,24.8,21.5,18.1,95,86,73,30.19,29.94,0,0,0,0.00
2013-12-27,38.5,31.9,24.6,32.2,28.5,22.1,93,87,77,30.21,29.97,0,0,0,0.11
2013-12-28,45.7,37.7,29.7,36.7,32.8,27.3,94,83,68,30.01,29.78,0,0,0,0.01
2013-12-29,42.6,33.6,22.5,33.8,28.9,17.8,93,83,69,29.89,29.57,0,0,0,0.00
2013-12-30,22.5,19.0,15.1,17.8,11.0,5.7,83,71,61,30.16,29.88,0,0,0,0.00
2013-12-31,19.9,16.4,14.0,16.0,11.9,9.5,92,82,71,30.24,29.96,0,0,0,0.00
2014-1-1,15.6,13.8,12.6,12.9,10.7,9.3,95,87,84,30.29,30.11,0,0,0,0.00
2014-1-2,15.1,11.5,1.9,12.9,8.1,-3.1,95,86,78,30.19,29.97,0,0,0,0.00